Time;durP1;ratioP1;P1;durP2;ratioP2;P2;SDS_P1;SDS_P2;PMS_P1;PMS_P2;Temp;Humidity;BMP_temperature;BMP_pressure;BME280_temperature;BME280_humidity;BME280_pressure;Samples;Min_cycle;Max_cycle;Signal;HPM_P1;HPM_P2
2023/01/26 00:01:08;;;;;;;26.90;15.03;;;;;;;0.93;100.00;99976.88;6220888;23;20215;-80
2023/01/26 00:03:35;;;;;;;22.47;14.60;;;;;;;0.96;100.00;99987.13;6220048;23;20209;-81
2023/01/26 00:06:05;;;;;;;21.33;13.73;;;;;;;1.00;100.00;99980.56;6195715;23;20209;-81
2023/01/26 00:08:39;;;;;;;23.30;13.93;;;;;;;0.94;100.00;99975.88;6178172;23;20205;-81
2023/01/26 00:11:08;;;;;;;22.37;14.20;;;;;;;0.99;100.00;99970.97;6210777;23;20223;-82
2023/01/26 00:13:36;;;;;;;19.37;13.47;;;;;;;0.80;100.00;99964.88;6171993;23;20241;-82
2023/01/26 00:16:03;;;;;;;20.67;13.73;;;;;;;0.88;100.00;99967.63;6222939;23;20219;-80
2023/01/26 00:18:30;;;;;;;18.77;13.40;;;;;;;0.96;100.00;99969.50;6196863;23;20209;-81
2023/01/26 00:20:58;;;;;;;18.73;12.87;;;;;;;0.92;100.00;99976.06;6208611;23;20201;-81
2023/01/26 00:23:26;;;;;;;18.37;12.70;;;;;;;0.99;100.00;99970.97;6192554;23;20217;-80
2023/01/26 00:25:52;;;;;;;20.70;12.93;;;;;;;1.03;100.00;99978.44;6215132;23;20213;-80
2023/01/26 00:28:19;;;;;;;19.50;13.67;;;;;;;1.00;100.00;99977.94;6213278;23;20209;-80
2023/01/26 00:30:45;;;;;;;22.40;14.03;;;;;;;1.03;100.00;99974.97;6215547;23;20213;-80
2023/01/26 00:33:12;;;;;;;21.23;14.10;;;;;;;0.90;100.00;99964.81;6215295;23;20741;-80
2023/01/26 00:35:43;;;;;;;23.70;13.23;;;;;;;0.83;100.00;99966.41;6188650;23;20219;-79
2023/01/26 00:38:11;;;;;;;19.20;13.00;;;;;;;0.80;100.00;99971.94;6188543;23;20592;-80
2023/01/26 00:40:40;;;;;;;20.47;13.00;;;;;;;0.79;100.00;99965.84;6215948;23;20545;-79
2023/01/26 00:43:06;;;;;;;20.77;13.63;;;;;;;0.83;100.00;99961.94;6188675;23;20538;-80
2023/01/26 00:45:34;;;;;;;18.87;12.97;;;;;;;0.96;100.00;99956.31;6215438;23;20213;-80
2023/01/26 00:48:04;;;;;;;17.60;12.70;;;;;;;1.03;100.00;99954.69;6188135;23;20209;-80
2023/01/26 00:50:31;;;;;;;18.90;12.90;;;;;;;0.95;100.00;99959.06;6215139;23;20201;-79
2023/01/26 00:52:58;;;;;;;18.63;13.03;;;;;;;1.04;100.00;99959.00;6215104;23;20232;-80
2023/01/26 00:55:31;;;;;;;18.40;12.43;;;;;;;0.99;100.00;99955.16;6188865;23;20205;-79
2023/01/26 00:58:04;;;;;;;18.77;13.43;;;;;;;0.83;100.00;99954.03;6213459;23;20209;-80
2023/01/26 01:00:32;;;;;;;18.80;12.73;;;;;;;0.71;100.00;99941.19;6163931;23;20204;-80
2023/01/26 01:02:59;;;;;;;20.77;12.90;;;;;;;0.72;100.00;99948.13;6218075;23;20267;-81
2023/01/26 01:05:27;;;;;;;21.13;13.37;;;;;;;0.74;100.00;99943.56;6218766;23;20213;-81
2023/01/26 01:07:55;;;;;;;20.13;13.73;;;;;;;0.77;100.00;99952.00;6218970;23;20224;-81
2023/01/26 01:10:22;;;;;;;19.13;13.10;;;;;;;0.79;100.00;99941.31;6216791;23;20209;-80
2023/01/26 01:12:48;;;;;;;19.07;13.00;;;;;;;0.81;100.00;99932.25;6192052;23;20292;-81
2023/01/26 01:15:15;;;;;;;18.60;13.37;;;;;;;0.86;100.00;99926.50;6191388;23;20642;-81
2023/01/26 01:17:42;;;;;;;19.90;13.23;;;;;;;0.94;100.00;99931.03;6165738;23;20205;-79
2023/01/26 01:20:09;;;;;;;19.00;12.37;;;;;;;1.03;100.00;99930.13;6217045;23;20225;-79
2023/01/26 01:22:36;;;;;;;18.13;12.57;;;;;;;0.99;100.00;99926.13;6193380;23;20207;-81
2023/01/26 01:25:04;;;;;;;19.90;12.87;;;;;;;0.93;100.00;99926.75;6219585;23;20232;-79
2023/01/26 01:27:30;;;;;;;20.10;13.40;;;;;;;0.87;100.00;99922.91;6188608;23;20272;-79
2023/01/26 01:29:57;;;;;;;19.67;12.60;;;;;;;0.86;100.00;99921.25;6214977;23;20213;-80
2023/01/26 01:32:23;;;;;;;18.53;12.20;;;;;;;0.88;100.00;99917.50;6190935;23;20542;-80
2023/01/26 01:34:50;;;;;;;17.90;12.57;;;;;;;0.79;100.00;99912.28;6219583;23;20210;-80
2023/01/26 01:37:17;;;;;;;18.03;12.17;;;;;;;0.81;100.00;99907.66;6168952;23;20213;-81
2023/01/26 01:39:44;;;;;;;19.33;12.47;;;;;;;0.81;100.00;99907.66;6220643;23;20213;-81
2023/01/26 01:42:12;;;;;;;19.17;12.17;;;;;;;0.85;100.00;99901.94;6191312;23;20670;-80
2023/01/26 01:44:38;;;;;;;21.43;13.40;;;;;;;0.87;100.00;99901.81;6217529;23;20197;-81
2023/01/26 01:47:09;;;;;;;19.80;12.80;;;;;;;0.85;100.00;99890.56;6216157;23;20284;-80
2023/01/26 01:49:48;;;;;;;18.93;12.13;;;;;;;0.85;100.00;99904.59;6188703;23;20205;-80
2023/01/26 01:52:26;;;;;;;18.73;12.43;;;;;;;0.79;100.00;99889.34;6189617;23;20220;-80
2023/01/26 01:55:00;;;;;;;20.87;12.73;;;;;;;0.80;100.00;99887.53;6178304;23;20212;-81
2023/01/26 01:57:31;;;;;;;19.70;13.23;;;;;;;0.79;100.00;99889.34;6174733;23;20240;-81
2023/01/26 02:00:08;;;;;;;19.37;12.73;;;;;;;0.81;100.00;99891.84;6204733;23;20682;-82
2023/01/26 02:02:40;;;;;;;18.43;12.13;;;;;;;0.85;100.00;99893.19;6157109;23;20208;-82
2023/01/26 02:05:23;;;;;;;18.00;12.43;;;;;;;0.91;100.00;99886.50;6219378;23;20205;-81
2023/01/26 02:07:50;;;;;;;17.10;11.63;;;;;;;0.85;100.00;99880.84;6196176;23;20216;-82
2023/01/26 02:10:19;;;;;;;19.10;12.37;;;;;;;0.84;100.00;99884.44;6218516;23;20221;-81
2023/01/26 02:12:48;;;;;;;17.13;12.03;;;;;;;0.81;100.00;99876.84;6200958;23;20189;-82
2023/01/26 02:15:15;;;;;;;19.57;12.80;;;;;;;0.81;100.00;99870.75;6204645;23;20201;-81
2023/01/26 02:17:42;;;;;;;18.10;12.60;;;;;;;0.85;100.00;99867.66;6202664;23;20311;-81
2023/01/26 02:20:32;;;;;;;19.10;12.33;;;;;;;0.81;100.00;99876.84;6233669;23;20213;-81
2023/01/26 02:23:14;;;;;;;16.90;11.87;;;;;;;0.77;100.00;99867.59;6187736;23;20209;-82
2023/01/26 02:25:52;;;;;;;18.33;11.60;;;;;;;0.83;100.00;99867.00;6238162;23;20209;-82
2023/01/26 02:28:21;;;;;;;18.43;12.20;;;;;;;0.73;100.00;99860.97;6211666;23;20213;-82
2023/01/26 02:30:48;;;;;;;20.67;13.57;;;;;;;0.71;100.00;99851.53;6211201;23;20209;-82
2023/01/26 02:33:27;;;;;;;19.37;13.17;;;;;;;0.72;100.00;99847.91;6208827;23;20206;-80
2023/01/26 02:35:58;;;;;;;21.23;13.77;;;;;;;0.70;100.00;99845.41;6189160;23;20589;-80
2023/01/26 02:38:28;;;;;;;22.67;14.07;;;;;;;0.70;100.00;99850.69;6211786;23;20201;-79
2023/01/26 02:41:02;;;;;;;22.63;14.53;;;;;;;0.67;100.00;99837.00;6212594;23;20220;-79
2023/01/26 02:43:29;;;;;;;24.23;15.13;;;;;;;0.74;100.00;99838.06;6212591;23;20209;-79
2023/01/26 02:45:56;;;;;;;23.40;14.80;;;;;;;0.72;100.00;99834.72;6187104;23;20684;-79
2023/01/26 02:51:08;;;;;;;21.80;13.90;;;;;;;0.74;100.00;99825.72;6187440;23;20209;-78
2023/01/26 02:53:35;;;;;;;23.63;14.67;;;;;;;0.71;100.00;99831.25;6187478;23;20284;-79
2023/01/26 02:56:02;;;;;;;22.90;12.87;;;;;;;0.75;100.00;99834.41;6213334;23;20683;-78
2023/01/26 02:58:28;;;;;;;22.53;13.23;;;;;;;0.67;100.00;99829.91;6187735;23;20205;-79
2023/01/26 03:00:55;;;;;;;20.83;13.40;;;;;;;0.66;100.00;99828.25;6213826;23;20221;-79
2023/01/26 03:03:42;;;;;;;21.30;13.97;;;;;;;0.68;100.00;99826.31;6162911;23;20205;-79
2023/01/26 03:06:10;;;;;;;19.40;13.00;;;;;;;0.73;100.00;99825.84;6190624;23;20283;-78
2023/01/26 03:08:38;;;;;;;19.33;13.07;;;;;;;0.67;100.00;99826.44;6187446;23;20205;-80
2023/01/26 03:11:05;;;;;;;22.23;14.23;;;;;;;0.71;100.00;99814.59;6215731;23;20284;-80
2023/01/26 03:13:32;;;;;;;23.17;14.27;;;;;;;0.63;100.00;99819.81;6215859;23;20209;-80
2023/01/26 03:16:05;;;;;;;21.63;13.67;;;;;;;0.66;100.00;99809.78;6189047;23;20280;-80
2023/01/26 03:29:44;;;;;;;23.93;14.83;;;;;;;0.69;100.00;99798.97;6167066;23;20209;-80
2023/01/26 03:32:12;;;;;;;23.60;14.27;;;;;;;0.76;100.00;99801.78;6188552;23;20192;-81
2023/01/26 03:34:40;;;;;;;26.70;15.60;;;;;;;0.73;100.00;99807.38;6189105;23;20662;-80
2023/01/26 03:37:07;;;;;;;26.87;14.73;;;;;;;0.72;100.00;99800.44;6214392;23;20206;-80
2023/01/26 03:56:23;;;;;;;25.90;15.07;;;;;;;0.60;100.00;99781.41;6213928;23;20201;-80
2023/01/26 03:58:55;;;;;;;22.87;13.87;;;;;;;0.62;100.00;99784.72;6164350;23;20241;-81
2023/01/26 04:01:26;;;;;;;21.20;12.73;;;;;;;0.66;100.00;99783.41;6186365;23;20675;-81
2023/01/26 04:09:31;;;;;;;21.47;13.27;;;;;;;0.62;100.00;99778.59;6187786;23;20217;-80
2023/01/26 04:11:58;;;;;;;22.10;13.07;;;;;;;0.61;100.00;99783.03;6187733;23;20224;-80
2023/01/26 04:22:51;;;;;;;20.10;13.17;;;;;;;0.54;100.00;99757.47;6188996;23;20654;-80
2023/01/26 04:25:19;;;;;;;24.40;15.00;;;;;;;0.54;100.00;99760.94;6189337;23;20289;-79
2023/01/26 04:27:46;;;;;;;27.00;15.73;;;;;;;0.54;100.00;99757.47;6188675;23;20217;-79
2023/01/26 04:30:15;;;;;;;30.73;18.20;;;;;;;0.51;100.00;99755.13;6188517;23;20213;-79
2023/01/26 04:32:42;;;;;;;31.57;18.90;;;;;;;0.62;100.00;99753.06;6188587;23;20201;-78
2023/01/26 04:35:10;;;;;;;29.00;17.80;;;;;;;0.56;100.00;99752.88;6164097;23;20209;-80
2023/01/26 04:37:37;;;;;;;27.83;17.33;;;;;;;0.55;100.00;99744.13;6189399;23;20208;-80
2023/01/26 04:40:05;;;;;;;32.03;18.20;;;;;;;0.48;100.00;99739.59;6163073;23;20232;-78
2023/01/26 04:42:34;;;;;;;31.37;17.30;;;;;;;0.44;100.00;99736.44;6188360;23;20217;-79
2023/01/26 04:45:02;;;;;;;31.40;17.77;;;;;;;0.54;100.00;99744.28;6188246;23;20292;-80
2023/01/26 04:47:29;;;;;;;29.27;15.97;;;;;;;0.60;100.00;99743.66;6188539;23;20217;-81
2023/01/26 04:49:56;;;;;;;28.70;15.37;;;;;;;0.60;100.00;99741.03;6188133;23;20240;-79
2023/01/26 04:52:23;;;;;;;27.13;15.57;;;;;;;0.58;100.00;99738.53;6188072;23;20284;-80
2023/01/26 04:54:50;;;;;;;26.80;15.40;;;;;;;0.61;100.00;99742.66;6188681;23;20292;-79
2023/01/26 04:57:19;;;;;;;27.43;15.57;;;;;;;0.63;100.00;99740.72;6215066;23;20593;-80
2023/01/26 04:59:48;;;;;;;26.43;15.90;;;;;;;0.63;100.00;99738.91;6188689;23;20209;-80
2023/01/26 05:02:16;;;;;;;25.57;15.57;;;;;;;0.51;100.00;99729.59;6188017;23;20716;-80
2023/01/26 05:04:43;;;;;;;27.53;16.53;;;;;;;0.58;100.00;99730.63;6214923;23;20212;-80
2023/01/26 05:07:10;;;;;;;29.63;17.03;;;;;;;0.64;100.00;99724.75;6212001;23;20284;-80
2023/01/26 05:09:37;;;;;;;27.63;15.90;;;;;;;0.52;100.00;99723.31;6186577;23;20205;-80
2023/01/26 05:12:34;;;;;;;26.33;16.00;;;;;;;0.51;100.00;99726.97;6199966;23;20236;-80
2023/01/26 05:15:34;;;;;;;24.70;15.30;;;;;;;0.53;100.00;99727.63;6207625;23;20205;-80
2023/01/26 05:18:09;;;;;;;23.43;14.00;;;;;;;0.60;100.00;99728.69;6191125;23;20646;-80
2023/01/26 05:20:50;;;;;;;24.37;15.67;;;;;;;0.49;100.00;99728.91;6171523;23;20198;-81
2023/01/26 05:23:22;;;;;;;29.23;17.23;;;;;;;0.49;100.00;99728.09;6218070;23;20209;-81
2023/01/26 05:26:01;;;;;;;28.73;16.77;;;;;;;0.55;100.00;99723.03;6194041;23;20670;-80
2023/01/26 05:28:30;;;;;;;28.37;16.43;;;;;;;0.52;100.00;99728.59;6166596;23;20197;-81
2023/01/26 05:30:57;;;;;;;24.43;15.00;;;;;;;0.53;100.00;99726.78;6216296;23;20228;-80
2023/01/26 05:33:24;;;;;;;28.80;15.70;;;;;;;0.57;100.00;99730.78;6166119;23;20212;-81
2023/01/26 05:35:52;;;;;;;29.73;15.47;;;;;;;0.55;100.00;99730.94;6191562;23;20210;-81
2023/01/26 05:38:19;;;;;;;27.13;15.57;;;;;;;0.49;100.00;99734.19;6190981;23;20584;-81
2023/01/26 05:40:46;;;;;;;27.23;16.97;;;;;;;0.60;100.00;99733.13;6191224;23;20220;-81
2023/01/26 05:43:14;;;;;;;31.37;17.37;;;;;;;0.55;100.00;99733.59;6191176;23;20205;-81
2023/01/26 05:46:07;;;;;;;30.73;16.97;;;;;;;0.47;100.00;99730.84;6215645;23;20752;-80
2023/01/26 05:48:33;;;;;;;33.83;17.40;;;;;;;0.49;100.00;99725.44;6215904;23;20201;-81
2023/01/26 05:51:01;;;;;;;28.07;16.47;;;;;;;0.47;100.00;99727.44;6191339;23;20213;-81
2023/01/26 05:53:31;;;;;;;28.47;16.47;;;;;;;0.51;100.00;99728.78;6192390;23;20212;-81
2023/01/26 05:55:58;;;;;;;26.93;15.80;;;;;;;0.59;100.00;99726.19;6217140;23;20216;-81
2023/01/26 05:58:26;;;;;;;28.40;16.97;;;;;;;0.54;100.00;99729.28;6215548;23;20584;-81
2023/01/26 06:00:53;;;;;;;27.37;15.50;;;;;;;0.61;100.00;99732.13;6190154;23;20255;-81
2023/01/26 06:03:25;;;;;;;26.80;16.37;;;;;;;0.65;100.00;99728.22;6190772;23;20732;-80
2023/01/26 06:05:53;;;;;;;27.23;15.83;;;;;;;0.65;100.00;99736.97;6216665;23;20255;-80
2023/01/26 06:08:29;;;;;;;25.87;15.27;;;;;;;0.65;100.00;99733.50;6167768;23;20205;-81
2023/01/26 06:11:16;;;;;;;26.13;15.93;;;;;;;0.66;100.00;99738.59;6217486;23;20235;-80
2023/01/26 06:13:55;;;;;;;25.80;15.90;;;;;;;0.61;100.00;99732.94;6192817;23;20255;-79
2023/01/26 06:16:25;;;;;;;28.47;15.33;;;;;;;0.66;100.00;99721.94;6214222;23;20201;-79
2023/01/26 06:18:53;;;;;;;28.60;16.07;;;;;;;0.70;100.00;99736.50;6187700;23;20213;-79
2023/01/26 06:21:20;;;;;;;26.27;15.57;;;;;;;0.68;100.00;99728.72;6214500;23;20287;-80
2023/01/26 06:23:46;;;;;;;26.17;16.07;;;;;;;0.62;100.00;99728.50;6187726;23;20212;-80
2023/01/26 06:26:14;;;;;;;26.13;16.33;;;;;;;0.71;100.00;99724.94;6186235;23;20670;-79
2023/01/26 06:28:41;;;;;;;26.83;16.30;;;;;;;0.63;100.00;99730.16;6188161;23;20288;-79
2023/01/26 06:31:09;;;;;;;30.97;16.70;;;;;;;0.64;100.00;99721.28;6214315;23;20264;-80
2023/01/26 06:33:37;;;;;;;30.77;17.13;;;;;;;0.69;100.00;99726.94;6163513;23;20209;-80
2023/01/26 06:36:10;;;;;;;30.93;16.87;;;;;;;0.68;100.00;99725.25;6162671;23;20597;-79
2023/01/26 06:38:38;;;;;;;29.07;17.03;;;;;;;0.75;100.00;99726.28;6187359;23;20210;-80
2023/01/26 06:41:06;;;;;;;32.40;17.70;;;;;;;0.75;100.00;99727.13;6187310;23;20610;-80
2023/01/26 06:43:34;;;;;;;29.07;16.43;;;;;;;0.78;100.00;99718.91;6163569;23;20193;-80
2023/01/26 06:46:02;;;;;;;31.57;18.20;;;;;;;0.85;100.00;99729.66;6187925;23;20654;-78
2023/01/26 06:48:31;;;;;;;31.23;16.70;;;;;;;0.86;100.00;99724.25;6182403;23;20218;-80
2023/01/26 06:51:42;;;;;;;30.73;16.93;;;;;;;0.84;100.00;99723.56;6184287;23;20214;-79
2023/01/26 06:54:10;;;;;;;30.57;16.63;;;;;;;0.87;100.00;99725.91;6182098;23;20228;-79
2023/01/26 06:56:57;;;;;;;29.83;17.13;;;;;;;0.91;100.00;99723.78;6168096;23;20206;-80
2023/01/26 06:59:44;;;;;;;32.17;16.73;;;;;;;0.95;100.00;99725.09;6123527;23;20657;-80
2023/01/26 07:02:23;;;;;;;32.20;17.43;;;;;;;1.02;100.00;99727.97;6183971;23;20205;-80
2023/01/26 07:04:49;;;;;;;35.70;17.60;;;;;;;0.98;100.00;99729.25;6182683;23;20673;-80
2023/01/26 07:07:16;;;;;;;32.97;17.53;;;;;;;0.93;100.00;99729.72;6183944;23;20210;-80
2023/01/26 07:09:43;;;;;;;32.20;18.10;;;;;;;0.94;100.00;99727.91;6184114;23;20595;-80
2023/01/26 07:12:09;;;;;;;35.07;18.57;;;;;;;1.01;100.00;99731.56;6183676;23;20209;-79
2023/01/26 07:14:36;;;;;;;35.60;18.67;;;;;;;1.01;100.00;99721.03;6183995;23;20208;-80
2023/01/26 07:17:03;;;;;;;33.13;18.50;;;;;;;1.02;100.00;99725.31;6184264;23;20210;-81
2023/01/26 07:19:32;;;;;;;33.33;18.23;;;;;;;1.07;100.00;99729.16;6184117;23;20218;-80
2023/01/26 07:21:59;;;;;;;35.90;19.17;;;;;;;1.13;100.00;99730.31;6183281;23;20217;-80
2023/01/26 07:24:26;;;;;;;31.83;18.07;;;;;;;1.17;100.00;99724.56;6183146;23;20683;-80
2023/01/26 07:26:54;;;;;;;32.13;17.30;;;;;;;1.25;100.00;99719.34;6183805;23;20542;-80
2023/01/26 07:29:20;;;;;;;29.97;18.47;;;;;;;1.25;100.00;99726.44;6182209;23;20214;-80
2023/01/26 07:31:47;;;;;;;27.70;16.70;;;;;;;1.23;100.00;99723.13;6183985;23;20685;-80
2023/01/26 07:34:14;;;;;;;28.40;16.63;;;;;;;1.24;100.00;99724.78;6188876;23;20274;-80
2023/01/26 07:36:40;;;;;;;28.67;17.00;;;;;;;1.29;100.00;99727.78;6189572;23;20210;-81
2023/01/26 07:39:07;;;;;;;31.10;17.97;;;;;;;1.30;100.00;99726.78;6190072;23;20731;-81
2023/01/26 07:41:34;;;;;;;29.27;17.30;;;;;;;1.29;100.00;99723.31;6213382;23;20208;-80
2023/01/26 07:44:11;;;;;;;28.97;17.30;;;;;;;1.29;100.00;99720.69;6165369;23;20297;-81
2023/01/26 07:46:38;;;;;;;28.83;17.43;;;;;;;1.30;100.00;99729.44;6188122;23;20206;-81
2023/01/26 07:49:05;;;;;;;28.27;16.73;;;;;;;1.30;100.00;99726.78;6208636;23;20212;-81
2023/01/26 07:51:32;;;;;;;32.03;17.57;;;;;;;1.31;100.00;99720.50;6220445;23;20209;-81
2023/01/26 07:53:59;;;;;;;30.73;17.40;;;;;;;1.39;100.00;99710.00;6196199;23;20201;-81
2023/01/26 07:56:26;;;;;;;31.77;18.30;;;;;;;1.39;100.00;99725.84;6195712;23;20209;-80
2023/01/26 07:58:53;;;;;;;34.80;18.57;;;;;;;1.43;100.00;99718.44;6222680;23;20205;-81
2023/01/26 08:01:20;;;;;;;30.47;17.10;;;;;;;1.43;100.00;99719.25;6196400;23;20789;-81
2023/01/26 08:03:49;;;;;;;30.83;17.53;;;;;;;1.47;100.00;99722.41;6223495;23;20212;-81
2023/01/26 08:06:17;;;;;;;31.40;18.70;;;;;;;1.53;100.00;99730.53;6195854;23;20586;-81
2023/01/26 08:08:52;;;;;;;30.97;18.00;;;;;;;1.57;100.00;99725.75;6218728;23;20584;-81
2023/01/26 08:11:21;;;;;;;33.07;17.53;;;;;;;1.62;100.00;99724.28;6191927;23;20209;-80
2023/01/26 08:13:48;;;;;;;35.33;18.50;;;;;;;1.70;100.00;99723.47;6219970;23;20228;-80
2023/01/26 08:16:14;;;;;;;33.67;18.43;;;;;;;1.75;100.00;99718.53;6215123;23;20205;-80
2023/01/26 08:18:42;;;;;;;33.73;18.67;;;;;;;1.79;100.00;99719.88;6217400;23;20630;-80
2023/01/26 08:21:11;;;;;;;33.93;19.63;;;;;;;1.80;100.00;99720.69;6192923;23;20280;-80
2023/01/26 08:23:39;;;;;;;31.97;18.37;;;;;;;1.95;100.00;99722.56;6220173;23;20321;-80
2023/01/26 08:26:09;;;;;;;36.37;18.97;;;;;;;1.93;100.00;99727.16;6192866;23;20566;-80
2023/01/26 08:28:35;;;;;;;36.23;19.43;;;;;;;1.99;100.00;99730.97;6220305;23;20205;-80
2023/01/26 08:31:10;;;;;;;36.47;19.37;;;;;;;2.10;100.00;99726.19;6220172;23;20214;-80
2023/01/26 08:33:37;;;;;;;34.83;19.57;;;;;;;2.16;100.00;99732.66;6169707;23;20220;-80
2023/01/26 08:36:06;;;;;;;30.43;16.90;;;;;;;2.13;100.00;99723.25;6219050;23;20284;-80
2023/01/26 08:38:33;;;;;;;29.50;17.63;;;;;;;2.16;100.00;99724.72;6220322;23;20202;-80
2023/01/26 08:41:00;;;;;;;30.60;17.57;;;;;;;2.18;100.00;99722.75;6220307;23;20681;-81
2023/01/26 08:43:27;;;;;;;31.07;18.50;;;;;;;2.21;100.00;99710.03;6193764;23;20648;-80
2023/01/26 08:45:54;;;;;;;31.43;17.87;;;;;;;2.25;100.00;99715.81;6193557;23;20208;-81
2023/01/26 08:48:21;;;;;;;28.40;17.03;;;;;;;2.30;100.00;99718.78;6218773;23;20638;-80
2023/01/26 08:50:52;;;;;;;29.23;17.13;;;;;;;2.26;100.00;99714.00;6193150;23;20185;-80
2023/01/26 08:53:19;;;;;;;29.83;17.23;;;;;;;2.27;100.00;99713.84;6193295;23;20210;-81
2023/01/26 08:55:46;;;;;;;29.30;18.07;;;;;;;2.32;100.00;99708.06;6219933;23;20206;-81
2023/01/26 08:58:12;;;;;;;31.03;17.53;;;;;;;2.29;100.00;99711.84;6218839;23;20673;-80
2023/01/26 09:00:39;;;;;;;33.83;21.03;;;;;;;2.31;100.00;99707.22;6219685;23;20206;-80
2023/01/26 09:03:05;;;;;;;34.97;18.77;;;;;;;2.26;100.00;99704.25;6219415;23;20202;-81
2023/01/26 09:05:37;;;;;;;34.80;19.33;;;;;;;2.30;100.00;99704.72;6219503;23;20323;-80
2023/01/26 09:08:06;;;;;;;34.30;20.07;;;;;;;2.34;100.00;99706.88;6168147;23;20215;-80
2023/01/26 09:10:33;;;;;;;33.87;19.67;;;;;;;2.37;100.00;99703.09;6220057;23;20189;-80
2023/01/26 09:13:00;;;;;;;35.23;18.97;;;;;;;2.43;100.00;99713.81;6193376;23;20523;-80
2023/01/26 09:15:27;;;;;;;33.67;19.77;;;;;;;2.50;100.00;99712.19;6219244;23;20275;-80
2023/01/26 09:17:53;;;;;;;35.03;19.90;;;;;;;2.45;100.00;99711.84;6219324;23;20209;-80
2023/01/26 09:20:20;;;;;;;33.23;18.50;;;;;;;2.49;100.00;99715.81;6219114;23;22610;-81
2023/01/26 09:22:47;;;;;;;32.63;18.60;;;;;;;2.59;100.00;99711.19;6219491;23;20288;-81
2023/01/26 09:25:14;;;;;;;32.10;18.07;;;;;;;2.62;100.00;99713.50;6219897;23;20598;-80
2023/01/26 09:27:41;;;;;;;30.20;18.13;;;;;;;2.71;100.00;99702.91;6193179;23;20217;-80
2023/01/26 09:30:08;;;;;;;29.90;17.80;;;;;;;2.70;100.00;99698.63;6218718;23;20260;-80
2023/01/26 09:32:35;;;;;;;31.93;18.80;;;;;;;2.68;100.00;99701.41;6219170;23;20277;-80
2023/01/26 09:35:01;;;;;;;32.83;18.43;;;;;;;2.61;100.00;99703.91;6222798;23;20269;-80
2023/01/26 09:37:28;;;;;;;33.33;18.37;;;;;;;2.61;100.00;99698.59;6218968;23;20206;-80
2023/01/26 09:39:55;;;;;;;33.00;18.20;;;;;;;2.68;100.00;99698.78;6221357;23;20284;-80
2023/01/26 09:42:56;;;;;;;30.83;17.90;;;;;;;2.64;100.00;99710.69;6218145;23;20272;-80
2023/01/26 09:45:28;;;;;;;32.67;18.47;;;;;;;2.60;100.00;99704.09;6193548;23;20221;-80
2023/01/26 09:48:19;;;;;;;31.90;17.93;;;;;;;2.53;100.00;99705.72;6192363;23;20225;-80
2023/01/26 09:51:14;;;;;;;35.97;19.23;;;;;;;2.50;100.00;99709.53;6191603;23;20205;-80
2023/01/26 09:53:52;;;;;;;30.57;17.57;;;;;;;2.47;100.00;99703.75;6193740;23;20240;-80
2023/01/26 09:56:21;;;;;;;35.27;18.33;;;;;;;2.55;100.00;99696.66;6192371;23;20201;-80
2023/01/26 09:58:55;;;;;;;31.53;17.60;;;;;;;2.55;100.00;99688.72;6184666;23;20706;-79
2023/01/26 10:01:41;;;;;;;34.33;18.30;;;;;;;2.54;100.00;99692.34;6215737;23;20292;-78
2023/01/26 10:04:31;;;;;;;31.40;18.00;;;;;;;2.66;100.00;99677.78;6188867;23;20213;-78
2023/01/26 10:06:59;;;;;;;32.50;17.60;;;;;;;2.66;100.00;99677.78;6189638;23;20214;-79
2023/01/26 10:09:46;;;;;;;34.80;17.57;;;;;;;2.65;100.00;99668.22;6167580;23;20681;-78
2023/01/26 10:12:22;;;;;;;33.50;17.87;;;;;;;2.74;100.00;99673.47;6214916;23;20658;-79
2023/01/26 10:14:53;;;;;;;32.73;17.97;;;;;;;2.72;100.00;99670.16;6215572;23;20216;-79
2023/01/26 10:17:40;;;;;;;32.13;18.20;;;;;;;2.76;100.00;99671.47;6217475;23;20210;-81
2023/01/26 10:20:14;;;;;;;31.83;17.57;;;;;;;2.66;100.00;99671.66;6218176;23;20658;-80
2023/01/26 10:22:44;;;;;;;34.37;18.10;;;;;;;2.60;100.00;99672.34;6218743;23;20211;-80
2023/01/26 10:25:16;;;;;;;31.93;17.53;;;;;;;2.54;100.00;99676.47;6192528;23;20205;-81
2023/01/26 10:27:44;;;;;;;31.77;16.80;;;;;;;2.56;100.00;99663.09;6218187;23;20205;-81
2023/01/26 10:30:13;;;;;;;33.63;17.17;;;;;;;2.58;100.00;99658.44;6218816;23;20193;-80
2023/01/26 10:32:41;;;;;;;34.43;18.03;;;;;;;2.49;100.00;99670.84;6192510;23;20670;-80
2023/01/26 10:35:18;;;;;;;32.83;18.03;;;;;;;2.52;100.00;99656.50;6192193;23;20201;-80
2023/01/26 10:37:45;;;;;;;35.10;18.70;;;;;;;2.45;100.00;99655.50;6219120;23;20280;-81
2023/01/26 10:40:12;;;;;;;31.57;17.20;;;;;;;2.44;100.00;99648.53;6192828;23;20225;-80
2023/01/26 10:42:39;;;;;;;34.87;18.27;;;;;;;2.61;100.00;99647.53;6219120;23;20197;-80
2023/01/26 10:45:22;;;;;;;34.73;18.07;;;;;;;2.56;100.00;99653.34;6217759;23;20220;-81
2023/01/26 10:48:08;;;;;;;36.13;18.60;;;;;;;2.48;100.00;99650.69;6218489;23;20269;-80
2023/01/26 10:50:35;;;;;;;34.33;18.27;;;;;;;2.48;100.00;99640.09;6192408;23;20201;-81
2023/01/26 10:53:03;;;;;;;34.43;18.30;;;;;;;2.56;100.00;99642.75;6193282;23;20215;-81
2023/01/26 10:55:32;;;;;;;32.87;18.00;;;;;;;2.61;100.00;99640.41;6167920;23;20209;-81
2023/01/26 10:57:59;;;;;;;31.93;17.53;;;;;;;2.64;100.00;99631.31;6192897;23;20280;-81
2023/01/26 11:00:32;;;;;;;31.03;17.90;;;;;;;2.63;100.00;99629.66;6192516;23;20201;-80
2023/01/26 11:03:16;;;;;;;34.50;18.17;;;;;;;2.61;100.00;99621.09;6168576;23;20205;-80
2023/01/26 11:05:46;;;;;;;32.70;18.27;;;;;;;2.53;100.00;99627.22;6218902;23;20223;-80
2023/01/26 11:08:33;;;;;;;32.57;19.37;;;;;;;2.52;100.00;99622.91;6192648;23;20287;-80
2023/01/26 11:11:00;;;;;;;29.23;18.17;;;;;;;2.42;100.00;99617.00;6219031;23;20201;-81
2023/01/26 11:13:27;;;;;;;32.67;17.93;;;;;;;2.40;100.00;99610.22;6219492;23;20202;-80
2023/01/26 11:16:13;;;;;;;29.67;17.30;;;;;;;2.51;100.00;99609.88;6219513;23;20525;-82
2023/01/26 11:18:57;;;;;;;29.10;17.77;;;;;;;2.47;100.00;99601.44;6192524;23;20216;-81
2023/01/26 11:21:52;;;;;;;27.03;16.30;;;;;;;2.20;100.00;99602.63;6192744;23;20240;-81
2023/01/26 11:24:41;;;;;;;29.17;16.70;;;;;;;2.35;100.00;99599.31;6191904;23;20259;-80
2023/01/26 11:27:31;;;;;;;27.07;16.77;;;;;;;2.13;100.00;99593.72;6219124;23;20213;-80
2023/01/26 11:30:16;;;;;;;28.63;16.90;;;;;;;2.06;100.00;99594.53;6219921;23;20212;-80
2023/01/26 11:33:12;;;;;;;29.60;18.40;;;;;;;2.12;100.00;99586.78;6220372;23;20213;-80
2023/01/26 11:35:44;;;;;;;28.17;17.40;;;;;;;2.19;100.00;99577.19;6195030;23;20593;-80
2023/01/26 11:38:37;;;;;;;28.73;17.43;;;;;;;2.23;100.00;99585.63;6189106;23;20213;-80
2023/01/26 11:41:23;;;;;;;26.17;16.70;;;;;;;2.35;100.00;99583.44;6167145;23;20210;-80
2023/01/26 11:44:11;;;;;;;29.40;17.63;;;;;;;2.36;100.00;99571.88;6162129;23;20209;-81
2023/01/26 11:46:48;;;;;;;26.37;16.10;;;;;;;2.26;100.00;99569.41;6219226;23;20536;-81
2023/01/26 11:49:39;;;;;;;24.83;15.87;;;;;;;2.28;100.00;99570.09;6191806;23;20228;-81
2023/01/26 11:52:16;;;;;;;29.77;17.23;;;;;;;2.39;100.00;99568.88;6219685;23;20267;-80
2023/01/26 11:54:48;;;;;;;25.27;16.30;;;;;;;2.48;100.00;99565.22;6192390;23;20233;-81
2023/01/26 11:57:27;;;;;;;25.13;16.00;;;;;;;2.44;100.00;99562.09;6215622;23;20610;-81
2023/01/26 12:00:12;;;;;;;28.07;15.80;;;;;;;2.29;100.00;99555.06;6167549;23;20280;-80
2023/01/26 12:03:03;;;;;;;30.47;17.27;;;;;;;2.42;100.00;99544.78;6220226;23;20205;-81
2023/01/26 12:05:41;;;;;;;27.23;16.30;;;;;;;2.45;100.00;99544.44;6193505;23;20677;-80
2023/01/26 12:08:26;;;;;;;29.97;18.73;;;;;;;2.52;100.00;99551.50;6220047;23;20202;-80
2023/01/26 12:11:21;;;;;;;31.83;18.20;;;;;;;2.38;100.00;99538.97;6220594;23;20213;-81
2023/01/26 12:14:02;;;;;;;31.87;18.73;;;;;;;2.58;100.00;99545.53;6174088;23;20208;-80
2023/01/26 12:16:36;;;;;;;32.77;19.47;;;;;;;2.42;100.00;99539.50;6219779;23;20256;-81
2023/01/26 12:19:41;;;;;;;34.97;19.83;;;;;;;2.52;100.00;99538.28;6220599;23;20275;-81
2023/01/26 12:22:12;;;;;;;33.47;18.87;;;;;;;2.69;100.00;99539.06;6219996;23;20528;-81